CEFAS Endeavour — VQHF3 — position and weather

sailwx.info

Track history (hours):
 
Tides and Currents Weather Stations Pressure Air Temp Water Temp Dewpoint Dewpoint Depression Visibility Wind Speed Wind Dir Waves Ship Positions

Oceanographic research ship CEFAS Endeavour (UK)

Detailed information on ship capabilities available from University of Delaware's Ocean Information Center.

Last reported at 2017-Dec-13 23:01 UTC. Time now 2017-Dec-18 09:16 UTC.
Position N 52°38' E 001°53'.

Length 74 m; draft 5.2 m.

Type: Ship. MMSI: 235005270.

Date/timePositionNaut miles runAvg speedWind from/ knotsBaromVisibWave heightAir tempDewpointWater temp
2017-Dec-13 23:01N 52°38' E 001°53'0 7.8
2017-Dec-13 23:00N 52°38' E 001°52'4 7.6
2017-Dec-13 22:30N 52°41' E 001°49'4 7.9
2017-Dec-13 22:00N 52°45' E 001°47'4 8.6
2017-Dec-13 21:30N 52°49' E 001°44'5 9.0
2017-Dec-13 21:00N 52°52' E 001°40'5 9.5
2017-Dec-13 20:30N 52°56' E 001°35'4 8.1
2017-Dec-13 20:00N 52°59' E 001°30'3 5.1
2017-Dec-13 19:30N 53°01' E 001°27'3 6.0
2017-Dec-13 19:00N 53°03' E 001°24'0 0.7
2017-Dec-13 18:30N 53°03' E 001°24'0 0.1
2017-Dec-13 18:00N 53°03' E 001°24'0 0.2
2017-Dec-13 17:31N 53°03' E 001°24'0 0.7
2017-Dec-13 17:00N 53°03' E 001°24'0 0.5
2017-Dec-13 16:30N 53°04' E 001°24'0 0.7
2017-Dec-13 16:00N 53°04' E 001°23'1 1.3
2017-Dec-13 15:30N 53°04' E 001°22'0 0.1
2017-Dec-13 15:00N 53°04' E 001°22'2 3.7
2017-Dec-13 14:30N 53°06' E 001°22'0 0.1
2017-Dec-13 14:01N 53°05' E 001°22'0 0.1
2017-Dec-13 13:30N 53°05' E 001°22'0 0.1
2017-Dec-13 13:01N 53°05' E 001°22'0 0.1
2017-Dec-13 12:30N 53°05' E 001°22'0 0.1
2017-Dec-13 12:00N 53°05' E 001°21'0 0.8
2017-Dec-13 11:30N 53°05' E 001°22'1 1.4
2017-Dec-13 11:00N 53°04' E 001°22'1 1.3
2017-Dec-13 10:31N 53°04' E 001°22'1 1.6
2017-Dec-13 10:00N 53°03' E 001°22'0 0.9
2017-Dec-13 09:30N 53°03' E 001°23'1 1.1
2017-Dec-13 09:00N 53°02' E 001°24'0 0.5
2017-Dec-13 08:30N 53°02' E 001°24'2 3.8
2017-Dec-13 08:00N 53°04' E 001°22'5 9.2
2017-Dec-13 07:30N 53°07' E 001°17'5 9.6
2017-Dec-13 07:00N 53°11' E 001°12'5 9.8
2017-Dec-13 06:30N 53°15' E 001°07'5 9.9
2017-Dec-13 05:58N 53°19' E 001°01'55 9.8
2017-Dec-13 00:23N 54°03' E 000°08'4 9.8
2017-Dec-13 00:00N 54°07' E 000°05'510.0
2017-Dec-12 23:30N 54°11' E 000°00'5 9.9
2017-Dec-12 23:00N 54°14' W 000°05'5 9.8
2017-Dec-12 22:30N 54°18' W 000°11'5 9.7
2017-Dec-12 22:00N 54°22' W 000°16'5 9.5
2017-Dec-12 21:30N 54°26' W 000°20'5 9.7
2017-Dec-12 21:00N 54°30' W 000°25'5 9.7
2017-Dec-12 20:30N 54°34' W 000°29'13 1.3
2017-Dec-12 10:01N 54°40' W 000°50'013.9
2017-Dec-12 10:00N 54°40' W 000°50'5 9.9
2017-Dec-12 09:29N 54°41' W 000°59'4 7.5
2017-Dec-12 09:00N 54°40' W 001°05'  
Track history (hours):
 
Tides and Currents Weather Stations Pressure Air Temp Water Temp Dewpoint Dewpoint Depression Visibility Wind Speed Wind Dir Waves Ship Positions

Oceanographic research ship CEFAS Endeavour (UK)

Detailed information on ship capabilities available from University of Delaware's Ocean Information Center.

Last reported at 2017-Dec-13 23:01 UTC. Time now 2017-Dec-18 09:16 UTC.
Position N 52°38' E 001°53'.

Length 74 m; draft 5.2 m.

Type: Ship. MMSI: 235005270.

Date/timePositionNaut miles runAvg speedWind from/ knotsBaromVisibWave heightAir tempDewpointWater temp
2017-Dec-13 23:01N 52°38' E 001°53'0 7.8
2017-Dec-13 23:00N 52°38' E 001°52'4 7.6
2017-Dec-13 22:30N 52°41' E 001°49'4 7.9
2017-Dec-13 22:00N 52°45' E 001°47'4 8.6
2017-Dec-13 21:30N 52°49' E 001°44'5 9.0
2017-Dec-13 21:00N 52°52' E 001°40'5 9.5
2017-Dec-13 20:30N 52°56' E 001°35'4 8.1
2017-Dec-13 20:00N 52°59' E 001°30'3 5.1
2017-Dec-13 19:30N 53°01' E 001°27'3 6.0
2017-Dec-13 19:00N 53°03' E 001°24'0 0.7
2017-Dec-13 18:30N 53°03' E 001°24'0 0.1
2017-Dec-13 18:00N 53°03' E 001°24'0 0.2
2017-Dec-13 17:31N 53°03' E 001°24'0 0.7
2017-Dec-13 17:00N 53°03' E 001°24'0 0.5
2017-Dec-13 16:30N 53°04' E 001°24'0 0.7
2017-Dec-13 16:00N 53°04' E 001°23'1 1.3
2017-Dec-13 15:30N 53°04' E 001°22'0 0.1
2017-Dec-13 15:00N 53°04' E 001°22'2 3.7
2017-Dec-13 14:30N 53°06' E 001°22'0 0.1
2017-Dec-13 14:01N 53°05' E 001°22'0 0.1
2017-Dec-13 13:30N 53°05' E 001°22'0 0.1
2017-Dec-13 13:01N 53°05' E 001°22'0 0.1
2017-Dec-13 12:30N 53°05' E 001°22'0 0.1
2017-Dec-13 12:00N 53°05' E 001°21'0 0.8
2017-Dec-13 11:30N 53°05' E 001°22'1 1.4
2017-Dec-13 11:00N 53°04' E 001°22'1 1.3
2017-Dec-13 10:31N 53°04' E 001°22'1 1.6
2017-Dec-13 10:00N 53°03' E 001°22'0 0.9
2017-Dec-13 09:30N 53°03' E 001°23'1 1.1
2017-Dec-13 09:00N 53°02' E 001°24'0 0.5
2017-Dec-13 08:30N 53°02' E 001°24'2 3.8
2017-Dec-13 08:00N 53°04' E 001°22'5 9.2
2017-Dec-13 07:30N 53°07' E 001°17'5 9.6
2017-Dec-13 07:00N 53°11' E 001°12'5 9.8
2017-Dec-13 06:30N 53°15' E 001°07'5 9.9
2017-Dec-13 05:58N 53°19' E 001°01'55 9.8
2017-Dec-13 00:23N 54°03' E 000°08'4 9.8
2017-Dec-13 00:00N 54°07' E 000°05'510.0
2017-Dec-12 23:30N 54°11' E 000°00'5 9.9
2017-Dec-12 23:00N 54°14' W 000°05'5 9.8
2017-Dec-12 22:30N 54°18' W 000°11'5 9.7
2017-Dec-12 22:00N 54°22' W 000°16'5 9.5
2017-Dec-12 21:30N 54°26' W 000°20'5 9.7
2017-Dec-12 21:00N 54°30' W 000°25'5 9.7
2017-Dec-12 20:30N 54°34' W 000°29'13 1.3
2017-Dec-12 10:01N 54°40' W 000°50'013.9
2017-Dec-12 10:00N 54°40' W 000°50'5 9.9
2017-Dec-12 09:29N 54°41' W 000°59'4 7.5
2017-Dec-12 09:00N 54°40' W 001°05'  

Dump ship's entire track history